createdAt,value
2023-01-11T00:00:43.510Z,15.02
2023-01-11T00:03:11.277Z,17.50
2023-01-11T00:05:42.719Z,16.92
2023-01-11T00:08:10.582Z,15.95
2023-01-11T00:10:38.646Z,19.30
2023-01-11T00:13:22.628Z,15.25
2023-01-11T00:15:50.846Z,15.55
2023-01-11T00:18:18.771Z,74.53
2023-01-11T00:20:46.505Z,38.00
2023-01-11T00:23:14.415Z,24.48
2023-01-11T00:25:42.380Z,22.20
2023-01-11T00:28:10.115Z,17.98
2023-01-11T00:30:37.986Z,18.02
2023-01-11T00:33:05.845Z,21.80
2023-01-11T00:35:33.633Z,19.98
2023-01-11T00:38:01.428Z,14.18
2023-01-11T00:40:29.303Z,16.80
2023-01-11T00:43:15.696Z,15.02
2023-01-11T00:46:02.924Z,17.83
2023-01-11T00:48:30.649Z,18.25
2023-01-11T00:50:59.326Z,16.38
2023-01-11T00:53:27.045Z,16.52
2023-01-11T00:55:54.839Z,23.90
2023-01-11T00:58:22.645Z,17.65
2023-01-11T01:00:50.503Z,15.07
2023-01-11T01:03:18.206Z,16.10
2023-01-11T01:05:46.138Z,17.38
2023-01-11T01:08:13.895Z,19.15
2023-01-11T01:10:41.644Z,17.55
2023-01-11T01:13:30.078Z,18.33
2023-01-11T01:15:59.119Z,16.90
2023-01-11T01:18:26.944Z,18.33
2023-01-11T01:20:54.746Z,21.23
2023-01-11T01:23:22.463Z,23.20
2023-01-11T01:25:50.350Z,16.85
2023-01-11T01:28:21.948Z,15.30
2023-01-11T01:30:53.027Z,16.10
2023-01-11T01:33:20.813Z,17.20
2023-01-11T01:35:48.620Z,20.95
2023-01-11T01:38:16.647Z,16.95
2023-01-11T01:40:45.369Z,15.18
2023-01-11T01:43:14.364Z,16.13
2023-01-11T01:45:42.668Z,13.25
2023-01-11T01:48:12.259Z,18.55
2023-01-11T01:50:47.212Z,14.75
2023-01-11T01:53:20.853Z,16.30
2023-01-11T01:55:57.364Z,17.23
2023-01-11T01:58:31.271Z,16.40
2023-01-11T02:01:19.129Z,19.75
2023-01-11T02:03:47.643Z,17.45
2023-01-11T02:06:15.345Z,18.80
2023-01-11T02:08:44.998Z,14.23
2023-01-11T02:11:30.107Z,14.50
2023-01-11T02:14:00.080Z,14.15
2023-01-11T02:16:27.829Z,13.23
2023-01-11T02:18:56.248Z,14.45
2023-01-11T02:21:26.820Z,15.23
2023-01-11T02:24:18.163Z,15.23
2023-01-11T02:26:59.194Z,16.73
2023-01-11T02:29:47.221Z,16.05
2023-01-11T02:32:31.811Z,16.20
2023-01-11T02:35:02.588Z,14.02
2023-01-11T02:37:48.123Z,17.30
2023-01-11T02:40:15.808Z,16.48
2023-01-11T02:43:02.293Z,16.90
2023-01-11T02:45:41.843Z,14.23
2023-01-11T02:48:20.415Z,14.15
2023-01-11T02:50:54.721Z,11.93
2023-01-11T02:53:34.698Z,14.15
2023-01-11T02:56:04.786Z,13.32
2023-01-11T02:58:34.214Z,12.88
2023-01-11T03:01:02.070Z,14.23
2023-01-11T03:03:29.820Z,12.93
2023-01-11T03:06:12.645Z,14.73
2023-01-11T03:08:49.707Z,10.85
2023-01-11T03:11:51.388Z,15.02
2023-01-11T03:14:45.535Z,12.68
2023-01-11T03:17:32.124Z,11.13
2023-01-11T03:20:08.476Z,12.00
2023-01-11T03:22:39.317Z,13.27
2023-01-11T03:25:10.242Z,14.90
2023-01-11T03:28:04.327Z,14.00
2023-01-11T03:30:52.412Z,18.95
2023-01-11T03:33:27.669Z,14.85
2023-01-11T03:36:02.185Z,18.08
2023-01-11T03:38:43.596Z,15.60
2023-01-11T03:41:14.562Z,14.13
2023-01-11T03:43:44.431Z,14.18
2023-01-11T03:46:20.803Z,16.50
2023-01-11T03:48:48.525Z,12.82
2023-01-11T03:51:18.463Z,16.58
2023-01-11T03:53:47.863Z,16.55
2023-01-11T03:56:18.137Z,17.75
2023-01-11T03:58:45.866Z,18.33
2023-01-11T04:01:14.033Z,15.70
2023-01-11T04:03:41.769Z,16.63
2023-01-11T04:06:10.763Z,14.00
2023-01-11T04:08:38.567Z,18.85
2023-01-11T04:11:06.416Z,14.13
2023-01-11T04:13:34.443Z,16.75
2023-01-11T04:16:02.297Z,18.83
2023-01-11T04:18:30.053Z,14.60
2023-01-11T04:20:57.977Z,16.90
2023-01-11T04:23:26.199Z,16.73
2023-01-11T04:25:53.919Z,20.33
2023-01-11T04:28:21.846Z,17.88
2023-01-11T04:30:49.647Z,21.83
2023-01-11T04:33:18.898Z,20.23
2023-01-11T04:35:46.672Z,20.80
2023-01-11T04:38:14.377Z,14.63
2023-01-11T04:40:42.198Z,17.30
2023-01-11T04:43:09.939Z,18.55
2023-01-11T04:45:37.706Z,16.17
2023-01-11T04:48:05.694Z,14.20
2023-01-11T04:50:33.495Z,13.25
2023-01-11T04:53:01.328Z,12.88
2023-01-11T04:55:29.065Z,13.50
2023-01-11T04:57:56.832Z,11.45
2023-01-11T05:00:24.582Z,12.32
2023-01-11T05:02:52.287Z,14.68
2023-01-11T05:05:20.161Z,15.77
2023-01-11T05:07:49.421Z,13.68
2023-01-11T05:10:19.414Z,15.98
2023-01-11T05:12:48.652Z,10.43
2023-01-11T05:15:16.517Z,12.20
2023-01-11T05:17:44.328Z,12.93
2023-01-11T05:20:12.371Z,10.30
2023-01-11T05:22:40.143Z,15.85
2023-01-11T05:25:08.200Z,21.65
2023-01-11T05:27:35.979Z,15.20
2023-01-11T05:30:03.879Z,16.08
2023-01-11T05:32:31.762Z,23.58
2023-01-11T05:34:59.565Z,27.13
2023-01-11T05:37:27.518Z,20.30
2023-01-11T05:39:55.238Z,17.73
2023-01-11T05:42:23.126Z,17.20
2023-01-11T05:45:09.332Z,65.90
2023-01-11T05:47:37.139Z,16.65
2023-01-11T05:50:05.083Z,14.60
2023-01-11T05:52:32.854Z,13.15
2023-01-11T05:55:00.730Z,12.52
2023-01-11T05:57:28.597Z,16.42
2023-01-11T05:59:56.422Z,11.45
2023-01-11T06:02:24.368Z,18.83
2023-01-11T06:04:52.209Z,12.73
2023-01-11T06:07:20.139Z,14.70
2023-01-11T06:09:47.865Z,12.70
2023-01-11T06:12:15.631Z,11.38
2023-01-11T06:14:43.388Z,12.27
2023-01-11T06:17:11.295Z,16.20
2023-01-11T06:19:39.145Z,16.45
2023-01-11T06:22:07.036Z,17.20
2023-01-11T06:24:35.106Z,13.07
2023-01-11T06:27:03.164Z,11.10
2023-01-11T06:29:30.999Z,15.10
2023-01-11T06:31:58.863Z,11.80
2023-01-11T06:34:26.756Z,13.68
2023-01-11T06:36:54.600Z,16.73
2023-01-11T06:39:22.424Z,13.52
2023-01-11T06:41:50.251Z,12.77
2023-01-11T06:44:18.085Z,15.07
2023-01-11T06:46:45.892Z,11.30
2023-01-11T06:49:13.625Z,12.85
2023-01-11T06:51:41.420Z,10.82
2023-01-11T06:54:09.236Z,24.48
2023-01-11T06:56:37.157Z,15.88
2023-01-11T06:59:04.986Z,16.13
2023-01-11T07:01:33.061Z,12.27
2023-01-11T07:04:01.052Z,13.95
2023-01-11T07:06:32.064Z,14.55
2023-01-11T07:08:59.975Z,16.48
2023-01-11T07:11:27.790Z,14.43
2023-01-11T07:13:55.522Z,12.27
2023-01-11T07:16:23.397Z,12.63
2023-01-11T07:18:51.256Z,15.90
2023-01-11T07:21:19.326Z,11.85
2023-01-11T07:23:48.906Z,16.00
2023-01-11T07:26:17.518Z,18.35
2023-01-11T07:28:45.359Z,22.23
2023-01-11T07:31:13.254Z,21.20
2023-01-11T07:33:41.124Z,15.50
2023-01-11T07:36:09.223Z,22.35
2023-01-11T07:38:36.976Z,17.23
2023-01-11T07:41:24.809Z,21.40
2023-01-11T07:43:52.701Z,17.05
2023-01-11T07:46:20.709Z,21.52
2023-01-11T07:48:48.555Z,17.10
2023-01-11T07:51:20.523Z,21.55
2023-01-11T07:53:48.381Z,21.10
2023-01-11T07:56:16.433Z,22.02
2023-01-11T07:58:44.326Z,21.10
2023-01-11T08:01:27.543Z,24.02
2023-01-11T08:03:56.773Z,19.45
2023-01-11T08:06:26.067Z,20.75
2023-01-11T08:08:58.754Z,21.65
2023-01-11T08:11:45.269Z,18.98
2023-01-11T08:14:31.730Z,26.05
2023-01-11T08:16:59.484Z,29.25
2023-01-11T08:19:27.255Z,27.15
2023-01-11T08:21:55.078Z,26.98
2023-01-11T08:24:22.964Z,29.75
2023-01-11T08:26:50.913Z,32.28
2023-01-11T08:29:19.208Z,24.80
2023-01-11T08:31:47.855Z,28.10
2023-01-11T08:34:16.332Z,22.40
2023-01-11T08:36:44.121Z,26.30
2023-01-11T08:39:12.149Z,25.35
2023-01-11T08:41:40.251Z,23.98
2023-01-11T08:44:09.455Z,17.25
2023-01-11T08:46:38.199Z,19.15
2023-01-11T08:49:12.234Z,26.83
2023-01-11T08:51:40.875Z,19.77
2023-01-11T08:54:12.061Z,19.10
2023-01-11T08:56:40.055Z,21.80
2023-01-11T08:59:11.473Z,13.95
2023-01-11T09:01:39.309Z,11.65
2023-01-11T09:04:19.354Z,16.75
2023-01-11T09:06:51.854Z,16.25
2023-01-11T09:09:19.713Z,16.52
2023-01-11T09:12:04.791Z,15.65
2023-01-11T09:14:33.365Z,15.48
2023-01-11T09:17:01.239Z,16.17
2023-01-11T09:19:29.075Z,19.25
2023-01-11T09:21:58.060Z,18.40
2023-01-11T09:24:25.937Z,15.70
2023-01-11T09:26:53.889Z,13.73
2023-01-11T09:29:21.854Z,23.33
2023-01-11T09:31:49.723Z,12.55
2023-01-11T09:34:17.860Z,15.23
2023-01-11T09:36:48.792Z,11.90
2023-01-11T09:39:20.409Z,13.65
2023-01-11T09:42:05.391Z,14.25
2023-01-11T09:44:34.993Z,15.30
2023-01-11T09:47:13.907Z,16.88
2023-01-11T09:49:45.913Z,20.88
2023-01-11T09:52:19.859Z,17.98
2023-01-11T09:54:48.255Z,19.17
2023-01-11T09:57:26.749Z,18.38
2023-01-11T09:59:58.391Z,17.85
2023-01-11T10:02:54.389Z,16.85
2023-01-11T10:05:41.102Z,22.52
2023-01-11T10:18:25.789Z,11.02
2023-01-11T10:18:28.490Z,17.35
2023-01-11T10:20:35.569Z,11.75
2023-01-11T10:23:06.440Z,18.45
2023-01-11T10:25:42.120Z,18.25
2023-01-11T10:28:23.275Z,27.20
2023-01-11T10:31:11.801Z,17.67
2023-01-11T10:33:46.928Z,17.00
2023-01-11T10:36:21.052Z,15.88
2023-01-11T10:39:12.018Z,13.77
2023-01-11T10:41:55.079Z,13.23
2023-01-11T10:44:30.666Z,14.35
2023-01-11T10:46:59.852Z,15.25
2023-01-11T10:49:33.661Z,13.82
2023-01-11T10:52:15.598Z,16.45
2023-01-11T10:54:47.426Z,10.80
2023-01-11T10:58:00.177Z,13.27
2023-01-11T11:00:36.739Z,17.08
2023-01-11T11:03:29.676Z,16.55
2023-01-11T11:06:09.312Z,18.08
2023-01-11T11:08:43.352Z,16.75
2023-01-11T11:11:16.804Z,22.88
2023-01-11T11:13:44.567Z,18.75
2023-01-11T11:16:24.768Z,25.73
2023-01-11T11:18:54.390Z,24.83
2023-01-11T11:21:33.821Z,30.35
2023-01-11T11:24:03.287Z,28.30
2023-01-11T11:26:38.909Z,29.27
2023-01-11T11:29:08.080Z,29.23
2023-01-11T11:31:37.995Z,17.27
2023-01-11T11:34:07.555Z,24.60
2023-01-11T11:36:42.697Z,30.00
2023-01-11T11:39:10.537Z,37.45
2023-01-11T11:42:07.753Z,36.20
2023-01-11T11:44:36.139Z,32.75
2023-01-11T11:47:06.480Z,34.00
2023-01-11T11:49:35.171Z,37.28
2023-01-11T11:52:04.656Z,31.95
2023-01-11T11:54:35.698Z,35.45
2023-01-11T11:57:15.903Z,27.15
2023-01-11T11:59:48.492Z,19.75
2023-01-11T12:02:30.720Z,9.73
2023-01-11T12:04:59.891Z,10.73
2023-01-11T12:07:36.103Z,9.48
2023-01-11T12:10:32.665Z,14.38
2023-01-11T12:13:01.838Z,12.93
2023-01-11T12:15:31.555Z,10.98
2023-01-11T12:18:20.756Z,16.23
2023-01-11T12:20:49.601Z,10.30
2023-01-11T12:23:19.242Z,10.07
2023-01-11T12:25:52.745Z,10.30
2023-01-11T12:28:28.513Z,8.82
2023-01-11T12:31:08.864Z,10.30
2023-01-11T12:33:39.853Z,8.43
2023-01-11T12:36:22.999Z,10.18
2023-01-11T12:39:09.719Z,9.75
2023-01-11T12:41:48.303Z,7.00
2023-01-11T12:44:16.210Z,6.80
2023-01-11T12:46:54.165Z,9.50
2023-01-11T12:49:21.948Z,6.65
2023-01-11T12:51:50.837Z,8.27
2023-01-11T12:54:23.859Z,7.68
2023-01-11T12:57:07.212Z,6.28
2023-01-11T12:59:44.181Z,7.43
2023-01-11T13:02:30.707Z,6.72
2023-01-11T13:05:17.000Z,6.05
2023-01-11T13:07:54.054Z,6.68
2023-01-11T13:10:28.506Z,6.63
2023-01-11T13:12:56.404Z,5.70
2023-01-11T13:15:52.214Z,7.07
2023-01-11T13:18:23.618Z,6.70
2023-01-11T13:21:01.335Z,7.70
2023-01-11T13:23:39.441Z,5.57
2023-01-11T13:26:14.498Z,8.60
2023-01-11T13:28:46.493Z,7.50
2023-01-11T13:31:15.420Z,7.82
2023-01-11T13:33:45.969Z,6.20
2023-01-11T13:36:23.455Z,8.55
2023-01-11T13:38:54.826Z,7.22
2023-01-11T13:41:24.553Z,7.43
2023-01-11T13:43:58.372Z,9.02
2023-01-11T13:46:27.316Z,12.00
2023-01-11T13:49:05.594Z,7.57
2023-01-11T13:51:43.258Z,11.82
2023-01-11T13:54:23.299Z,8.15
2023-01-11T13:57:01.064Z,6.93
2023-01-11T13:59:35.515Z,8.38
2023-01-11T14:02:26.647Z,8.32
2023-01-11T14:04:59.530Z,6.82
2023-01-11T14:07:33.393Z,9.18
2023-01-11T14:10:09.668Z,8.82
2023-01-11T14:13:06.839Z,6.78
2023-01-11T14:15:38.604Z,8.05
2023-01-11T14:18:09.458Z,8.60
2023-01-11T14:20:59.234Z,6.57
2023-01-11T14:23:33.296Z,8.27
2023-01-11T14:26:01.043Z,6.65
2023-01-11T14:28:32.063Z,7.53
2023-01-11T14:31:05.401Z,7.82
2023-01-11T14:36:04.010Z,7.15
2023-01-11T14:38:43.580Z,9.02
2023-01-11T14:41:34.150Z,8.32
2023-01-11T14:44:14.057Z,9.63
2023-01-11T14:46:42.026Z,9.02
2023-01-11T14:49:24.423Z,7.18
2023-01-11T14:51:55.489Z,8.27
2023-01-11T14:54:23.604Z,8.48
2023-01-11T14:56:53.197Z,10.65
2023-01-11T14:59:24.131Z,9.77
2023-01-11T15:02:04.370Z,8.13
2023-01-11T15:04:33.821Z,12.00
2023-01-11T15:07:02.021Z,9.77
2023-01-11T15:09:42.421Z,13.80
2023-01-11T15:12:16.640Z,8.75
2023-01-11T15:14:54.579Z,10.75
2023-01-11T15:17:43.627Z,33.70
2023-01-11T15:20:13.373Z,27.23
2023-01-11T15:22:42.001Z,33.30
2023-01-11T15:25:23.773Z,41.30
2023-01-11T15:27:52.913Z,72.70
2023-01-11T15:30:30.055Z,29.55
2023-01-11T15:33:16.991Z,22.40
2023-01-11T15:35:57.318Z,21.80
2023-01-11T15:38:28.254Z,17.90
2023-01-11T15:40:57.909Z,15.10
2023-01-11T15:43:48.442Z,10.52
2023-01-11T15:46:47.137Z,13.77
2023-01-11T15:49:27.219Z,12.68
2023-01-11T15:52:08.228Z,11.95
2023-01-11T15:54:53.827Z,13.52
2023-01-11T15:57:24.628Z,10.75
2023-01-11T16:00:04.743Z,10.80
2023-01-11T16:02:32.439Z,11.43
2023-01-11T16:05:01.443Z,13.98
2023-01-11T16:07:40.640Z,11.48
2023-01-11T16:10:30.688Z,12.52
2023-01-11T16:12:58.527Z,15.02
2023-01-11T16:15:26.394Z,13.18
2023-01-11T16:17:54.756Z,17.35
2023-01-11T16:20:22.784Z,17.67
2023-01-11T16:22:55.900Z,13.32
2023-01-11T16:25:26.193Z,17.90
2023-01-11T16:27:55.104Z,14.13
2023-01-11T16:30:23.603Z,18.58
2023-01-11T16:32:51.474Z,17.40
2023-01-11T16:35:21.229Z,19.52
2023-01-11T16:37:51.525Z,15.52
2023-01-11T16:40:22.669Z,15.30
2023-01-11T16:42:53.919Z,16.58
2023-01-11T16:45:29.455Z,21.52
2023-01-11T16:48:17.836Z,19.83
2023-01-11T16:51:07.376Z,24.40
2023-01-11T16:53:47.352Z,19.33
2023-01-11T16:56:23.784Z,16.55
2023-01-11T16:59:06.981Z,16.70
2023-01-11T17:01:50.577Z,19.65
2023-01-11T17:06:50.083Z,32.58
2023-01-11T17:09:21.684Z,20.02
2023-01-11T17:11:50.663Z,23.98
2023-01-11T17:14:24.757Z,21.65
2023-01-11T17:16:54.643Z,21.25
2023-01-11T17:19:24.655Z,37.70
2023-01-11T17:22:00.789Z,28.23
2023-01-11T17:24:29.172Z,32.83
2023-01-11T17:26:58.817Z,27.25
2023-01-11T17:29:31.736Z,26.02
2023-01-11T17:32:00.936Z,24.10
2023-01-11T17:34:36.609Z,30.88
2023-01-11T17:37:10.494Z,28.48
2023-01-11T17:39:48.940Z,24.08
2023-01-11T17:42:36.034Z,29.50
2023-01-11T17:45:12.968Z,25.58
2023-01-11T17:47:45.801Z,28.02
2023-01-11T17:50:30.099Z,25.63
2023-01-11T17:53:07.336Z,26.23
2023-01-11T17:55:35.413Z,28.83
2023-01-11T17:58:09.409Z,24.08
2023-01-11T18:00:37.421Z,28.95
2023-01-11T18:03:10.299Z,29.20
2023-01-11T18:05:38.510Z,28.38
2023-01-11T18:08:09.772Z,25.60
2023-01-11T18:10:38.997Z,26.58
2023-01-11T18:13:06.977Z,28.02
2023-01-11T18:15:36.908Z,29.08
2023-01-11T18:18:06.183Z,24.75
2023-01-11T18:20:35.847Z,27.58
2023-01-11T18:23:12.992Z,25.00
2023-01-11T18:25:41.339Z,27.05
2023-01-11T18:28:12.372Z,29.55
2023-01-11T18:30:41.753Z,24.75
2023-01-11T18:33:20.232Z,29.75
2023-01-11T18:35:49.761Z,26.92
2023-01-11T18:38:23.172Z,30.77
2023-01-11T18:40:56.075Z,31.55
2023-01-11T18:45:53.071Z,32.20
2023-01-11T18:48:21.501Z,32.67
2023-01-11T18:51:00.298Z,30.75
2023-01-11T18:53:41.370Z,43.55
2023-01-11T18:56:10.527Z,38.17
2023-01-11T18:58:39.081Z,32.42
2023-01-11T19:01:07.972Z,35.15
2023-01-11T19:06:28.596Z,34.92
2023-01-11T19:08:56.899Z,37.22
2023-01-11T19:11:25.734Z,41.47
2023-01-11T19:13:53.739Z,36.53
2023-01-11T19:16:23.402Z,32.15
2023-01-11T19:18:56.775Z,32.55
2023-01-11T19:21:25.627Z,24.42
2023-01-11T19:23:53.642Z,30.52
2023-01-11T19:26:21.437Z,31.10
2023-01-11T19:28:49.256Z,31.50
2023-01-11T19:31:17.783Z,36.45
2023-01-11T19:33:48.774Z,100.25
2023-01-11T19:36:16.759Z,362.20
2023-01-11T19:38:44.637Z,485.10
2023-01-11T19:41:15.462Z,294.33
2023-01-11T19:43:47.345Z,128.88
2023-01-11T19:46:30.043Z,46.47
2023-01-11T19:48:59.289Z,28.92
2023-01-11T19:51:27.242Z,36.58
2023-01-11T19:53:55.054Z,30.15
2023-01-11T19:56:22.967Z,27.95
2023-01-11T19:58:50.795Z,25.10
2023-01-11T20:01:18.791Z,27.90
2023-01-11T20:03:46.690Z,25.98
2023-01-11T20:06:14.559Z,27.85
2023-01-11T20:08:42.761Z,22.38
2023-01-11T20:11:15.237Z,27.75
2023-01-11T20:13:45.446Z,24.75
2023-01-11T20:16:14.085Z,28.67
2023-01-11T20:18:50.539Z,25.48
2023-01-11T20:21:19.457Z,24.42
2023-01-11T20:23:47.651Z,26.65
2023-01-11T20:26:16.359Z,28.20
2023-01-11T20:28:46.099Z,35.53
2023-01-11T20:31:35.009Z,33.97
2023-01-11T20:34:11.090Z,44.83
2023-01-11T20:36:38.933Z,38.78
2023-01-11T20:39:07.302Z,36.42
2023-01-11T20:41:48.834Z,29.48
2023-01-11T20:44:19.814Z,31.73
2023-01-11T20:46:48.592Z,31.55
2023-01-11T20:49:17.088Z,35.70
2023-01-11T20:52:17.926Z,49.53
2023-01-11T20:54:45.791Z,45.00
2023-01-11T20:57:13.694Z,44.42
2023-01-11T20:59:41.573Z,47.90
2023-01-11T21:02:15.855Z,60.88
2023-01-11T21:04:45.054Z,757.50
2023-01-11T21:07:14.454Z,601.95
2023-01-11T21:09:42.283Z,248.73
2023-01-11T21:12:10.280Z,247.80
2023-01-11T21:14:38.281Z,65.00
2023-01-11T21:17:06.280Z,79.20
2023-01-11T21:19:34.286Z,61.15
2023-01-11T21:22:02.150Z,62.42
2023-01-11T21:24:30.129Z,29.17
2023-01-11T21:26:58.108Z,26.50
2023-01-11T21:29:26.069Z,27.85
2023-01-11T21:31:53.868Z,31.80
2023-01-11T21:34:21.849Z,26.23
2023-01-11T21:36:49.652Z,25.85
2023-01-11T21:39:17.896Z,24.52
2023-01-11T21:42:01.272Z,25.10
2023-01-11T21:44:33.877Z,23.70
2023-01-11T21:47:02.690Z,25.63
2023-01-11T21:49:31.223Z,22.85
2023-01-11T21:51:59.309Z,29.35
2023-01-11T21:54:27.389Z,29.35
2023-01-11T21:56:55.185Z,22.10
2023-01-11T21:59:23.398Z,25.20
2023-01-11T22:01:51.179Z,23.20
2023-01-11T22:04:20.278Z,22.38
2023-01-11T22:06:51.378Z,26.80
2023-01-11T22:09:20.231Z,27.25
2023-01-11T22:11:48.265Z,28.42
2023-01-11T22:14:16.159Z,29.80
2023-01-11T22:16:43.988Z,28.88
2023-01-11T22:19:12.318Z,43.20
2023-01-11T22:21:40.094Z,46.58
2023-01-11T22:24:10.464Z,26.63
2023-01-11T22:26:39.369Z,25.63
2023-01-11T22:29:17.002Z,25.60
2023-01-11T22:31:44.939Z,23.75
2023-01-11T22:34:16.529Z,23.55
2023-01-11T22:36:45.174Z,23.80
2023-01-11T22:39:14.065Z,27.58
2023-01-11T22:41:42.262Z,26.48
2023-01-11T22:44:10.369Z,25.48
2023-01-11T22:46:38.829Z,25.40
2023-01-11T22:49:07.301Z,26.63
2023-01-11T22:51:35.953Z,26.67
2023-01-11T22:54:04.131Z,23.42
2023-01-11T22:56:32.414Z,27.88
2023-01-11T22:59:00.577Z,27.10
2023-01-11T23:01:28.367Z,22.70
2023-01-11T23:03:56.732Z,22.80
2023-01-11T23:06:44.950Z,22.65
2023-01-11T23:09:17.307Z,27.52
2023-01-11T23:12:04.329Z,23.57
2023-01-11T23:14:33.199Z,19.48
2023-01-11T23:17:11.532Z,21.85
2023-01-11T23:19:41.438Z,19.80
2023-01-11T23:22:10.108Z,17.95
2023-01-11T23:24:39.029Z,14.65
2023-01-11T23:27:06.914Z,17.17
2023-01-11T23:29:35.732Z,21.05
2023-01-11T23:32:03.840Z,23.30
2023-01-11T23:34:31.657Z,17.23
2023-01-11T23:36:59.664Z,17.77
2023-01-11T23:39:27.465Z,16.98
2023-01-11T23:42:14.039Z,18.50
2023-01-11T23:44:41.866Z,18.75
2023-01-11T23:47:21.108Z,15.98
2023-01-11T23:49:50.025Z,14.45
2023-01-11T23:52:19.069Z,14.77
2023-01-11T23:54:47.040Z,11.65
2023-01-11T23:57:15.506Z,15.27
2023-01-11T23:59:43.981Z,14.63
